KLAF/LAF METAR and TAF weather

Enter ICAO airport designator
Station Type Date Time Source
KLAF METAR 2019/08/19 07:54 UTC NOAA

KLAF 190754Z AUTO 00000KT 10SM OVC065 19/19 A2995 RMK AO2 SLP138 T01940194


Station Type Date Time Source
KLAF Decoded METAR 2019/08/19 07:54 UTC NOAA

Station name not available
Aug 19, 2019 - 03:54 AM EDT / 2019.08.19 0754 UTC
Wind: Calm:0
Visibility: 10 mile(s):0
Sky conditions: overcast
Temperature: 66.9 F (19.4 C)
Dew Point: 66.9 F (19.4 C)
Relative Humidity: 100%
Pressure (altimeter): 29.95 in. Hg (1014 hPa)
ob: KLAF 190754Z AUTO 00000KT 10SM OVC065 19/19 A2995 RMK AO2 SLP138 T01940194
cycle: 8

Station Type Date Time Source
KLAF TAF 2019/08/19 06:22 UTC NOAA

TAF KLAF 190520Z 1906/2006 VRB04KT P6SM SCT040 BKN200
FM191000 00000KT 6SM BR BKN012
FM191800 18007KT P6SM VCSH BKN045
FM200100 VRB03KT P6SM SCT200
AMD LTD TO CLD VIS AND WIND TIL 191300

Example: see airport list